Time;durP1;ratioP1;P1;durP2;ratioP2;P2;SDS_P1;SDS_P2;PMS_P1;PMS_P2;Temp;Humidity;BMP_temperature;BMP_pressure;BME280_temperature;BME280_humidity;BME280_pressure;Samples;Min_cycle;Max_cycle;Signal;HPM_P1;HPM_P2
2021/06/16 00:00:29;;;;;;;5.97;4.07;;;;;;;;;;2054369;28;20603;-55
2021/06/16 00:01:29;;;;;;;6.57;4.50;;;;;;;;;;2044619;28;20647;-55
2021/06/16 00:02:29;;;;;;;7.93;5.13;;;;;;;;;;2050794;28;20229;-55
2021/06/16 00:03:30;;;;;;;6.88;4.63;;;;;;;;;;2049736;28;20190;-54
2021/06/16 00:04:30;;;;;;;5.30;4.70;;;;;;;;;;2053392;28;20269;-51
2021/06/16 00:05:31;;;;;;;5.15;4.63;;;;;;;;;;2053605;28;20242;-54
2021/06/16 00:06:33;;;;;;;5.78;5.05;;;;;;;;;;2056748;28;20210;-56
2021/06/16 00:07:33;;;;;;;4.57;4.13;;;;;;;;;;2052488;28;20259;-54
2021/06/16 00:08:33;;;;;;;10.30;4.80;;;;;;;;;;2054124;28;20183;-52
2021/06/16 00:09:35;;;;;;;5.18;4.35;;;;;;;;;;2055229;28;20193;-52
2021/06/16 00:10:35;;;;;;;5.70;4.80;;;;;;;;;;2053306;28;20175;-52
2021/06/16 00:11:35;;;;;;;6.15;4.75;;;;;;;;;;2052270;28;20179;-52
2021/06/16 00:12:36;;;;;;;5.97;4.45;;;;;;;;;;2052313;28;20547;-51
2021/06/16 00:13:37;;;;;;;8.30;4.57;;;;;;;;;;2050726;28;20175;-53
2021/06/16 00:14:37;;;;;;;8.55;4.43;;;;;;;;;;2057124;28;20948;-51
2021/06/16 00:15:39;;;;;;;10.00;4.43;;;;;;;;;;2055048;28;20198;-53
2021/06/16 00:16:41;;;;;;;7.70;4.93;;;;;;;;;;2053640;28;20190;-51
2021/06/16 00:17:42;;;;;;;9.00;4.63;;;;;;;;;;2050945;28;20718;-51
2021/06/16 00:18:42;;;;;;;6.38;4.63;;;;;;;;;;2055389;28;20190;-51
2021/06/16 00:19:42;;;;;;;9.38;4.35;;;;;;;;;;2051557;28;20211;-56
2021/06/16 00:20:43;;;;;;;6.85;4.45;;;;;;;;;;2056499;28;20190;-53
2021/06/16 00:21:43;;;;;;;7.82;4.10;;;;;;;;;;2055373;28;20695;-53
2021/06/16 00:22:44;;;;;;;6.93;4.35;;;;;;;;;;2051279;28;20194;-52
2021/06/16 00:23:44;;;;;;;5.35;4.82;;;;;;;;;;2055546;28;20205;-50
2021/06/16 00:24:44;;;;;;;7.32;4.60;;;;;;;;;;2050989;28;20183;-55
2021/06/16 00:25:45;;;;;;;5.57;3.90;;;;;;;;;;2052224;28;20199;-54
2021/06/16 00:26:45;;;;;;;6.78;4.10;;;;;;;;;;2052362;28;20644;-53
2021/06/16 00:27:46;;;;;;;6.00;4.07;;;;;;;;;;2051325;28;20214;-54
2021/06/16 00:28:46;;;;;;;5.80;4.55;;;;;;;;;;2052280;28;20183;-53
2021/06/16 00:29:46;;;;;;;4.63;3.90;;;;;;;;;;2051184;28;20175;-53
2021/06/16 00:30:47;;;;;;;8.70;4.57;;;;;;;;;;2057099;28;20269;-54
2021/06/16 00:31:47;;;;;;;7.78;4.70;;;;;;;;;;2052667;28;20274;-58
2021/06/16 00:32:48;;;;;;;9.45;4.90;;;;;;;;;;2054741;28;20584;-55
2021/06/16 00:33:48;;;;;;;6.90;4.25;;;;;;;;;;2054264;28;20672;-54
2021/06/16 00:34:48;;;;;;;7.72;5.00;;;;;;;;;;2050671;28;20181;-54
2021/06/16 00:35:48;;;;;;;10.07;4.55;;;;;;;;;;2054962;28;20183;-53
2021/06/16 00:36:49;;;;;;;9.45;4.97;;;;;;;;;;2050164;28;20227;-51
2021/06/16 00:37:50;;;;;;;6.57;4.35;;;;;;;;;;2053334;28;20174;-51
2021/06/16 00:38:50;;;;;;;7.93;4.75;;;;;;;;;;2054308;28;20667;-52
2021/06/16 00:39:51;;;;;;;7.03;4.82;;;;;;;;;;2048303;28;20183;-51
2021/06/16 00:40:51;;;;;;;8.75;4.43;;;;;;;;;;2056716;28;20216;-51
2021/06/16 00:41:51;;;;;;;5.93;4.32;;;;;;;;;;2053737;28;20186;-54
2021/06/16 00:42:52;;;;;;;6.68;4.35;;;;;;;;;;2054496;28;20191;-54
2021/06/16 00:43:52;;;;;;;6.53;4.30;;;;;;;;;;2057378;28;20214;-55
2021/06/16 00:44:53;;;;;;;5.70;4.65;;;;;;;;;;2050723;28;20559;-55
2021/06/16 00:45:53;;;;;;;8.63;4.50;;;;;;;;;;2051365;28;20179;-54
2021/06/16 00:46:53;;;;;;;6.18;4.63;;;;;;;;;;2055196;28;20207;-53
2021/06/16 00:47:56;;;;;;;10.63;4.35;;;;;;;;;;2057799;28;20178;-53
2021/06/16 00:48:56;;;;;;;6.60;4.75;;;;;;;;;;2052983;28;20326;-51
2021/06/16 00:49:56;;;;;;;7.43;4.40;;;;;;;;;;2053336;28;20273;-56
2021/06/16 00:50:56;;;;;;;7.55;4.13;;;;;;;;;;2050325;28;20175;-54
2021/06/16 00:51:57;;;;;;;6.78;4.53;;;;;;;;;;2054343;28;20195;-54
2021/06/16 00:52:57;;;;;;;5.68;4.68;;;;;;;;;;2050101;28;20561;-53
2021/06/16 00:53:57;;;;;;;7.45;4.25;;;;;;;;;;2052327;28;20239;-52
2021/06/16 00:54:57;;;;;;;6.07;4.63;;;;;;;;;;2051028;28;20183;-51
2021/06/16 00:55:58;;;;;;;4.97;4.38;;;;;;;;;;2052236;28;20186;-53
2021/06/16 00:56:58;;;;;;;6.38;4.22;;;;;;;;;;2053395;28;20194;-54
2021/06/16 00:57:58;;;;;;;5.40;4.20;;;;;;;;;;2055332;28;20175;-53
2021/06/16 00:58:59;;;;;;;7.07;4.25;;;;;;;;;;2056465;28;20174;-52
2021/06/16 01:00:07;;;;;;;11.50;5.10;;;;;;;;;;2051440;28;20265;-50
2021/06/16 01:01:10;;;;;;;7.35;4.63;;;;;;;;;;2048505;28;20758;-50
2021/06/16 01:02:10;;;;;;;5.82;4.22;;;;;;;;;;2055287;28;20256;-50
2021/06/16 01:03:21;;;;;;;7.22;4.07;;;;;;;;;;2054689;28;20174;-53
2021/06/16 01:04:23;;;;;;;9.00;4.95;;;;;;;;;;2050676;28;20187;-55
2021/06/16 01:05:25;;;;;;;5.35;4.50;;;;;;;;;;2055436;28;20205;-56
2021/06/16 01:06:33;;;;;;;6.20;4.22;;;;;;;;;;2051928;28;20537;-51
2021/06/16 01:07:38;;;;;;;11.27;4.53;;;;;;;;;;2051601;28;20222;-50
2021/06/16 01:08:42;;;;;;;4.90;4.47;;;;;;;;;;2052677;28;20226;-57
2021/06/16 01:09:45;;;;;;;8.85;4.65;;;;;;;;;;2054175;28;20172;-51
2021/06/16 01:10:47;;;;;;;9.73;4.78;;;;;;;;;;2051504;28;20579;-51
2021/06/16 01:11:53;;;;;;;8.45;5.10;;;;;;;;;;2053253;28;20265;-50
2021/06/16 01:12:53;;;;;;;9.98;4.45;;;;;;;;;;2049921;28;20175;-54
2021/06/16 01:13:54;;;;;;;6.55;4.30;;;;;;;;;;2056329;28;20220;-54
2021/06/16 01:15:00;;;;;;;5.70;4.15;;;;;;;;;;2056750;28;20614;-53
2021/06/16 01:16:01;;;;;;;10.45;5.15;;;;;;;;;;2054150;28;20674;-52
2021/06/16 01:17:03;;;;;;;9.32;5.15;;;;;;;;;;2052250;28;20197;-52
2021/06/16 01:18:05;;;;;;;5.75;4.65;;;;;;;;;;2053156;28;20194;-52
2021/06/16 01:19:23;;;;;;;7.68;4.30;;;;;;;;;;2050809;28;20552;-53
2021/06/16 01:20:23;;;;;;;5.38;4.47;;;;;;;;;;2054590;28;20182;-53
2021/06/16 01:21:24;;;;;;;8.23;4.60;;;;;;;;;;2053546;28;20257;-55
2021/06/16 01:22:27;;;;;;;5.80;4.50;;;;;;;;;;2051545;28;20565;-54
2021/06/16 01:23:27;;;;;;;5.50;4.60;;;;;;;;;;2051227;28;20229;-53
2021/06/16 01:24:29;;;;;;;7.63;4.72;;;;;;;;;;2050487;28;20183;-52
2021/06/16 01:25:35;;;;;;;6.32;5.28;;;;;;;;;;2055733;28;20202;-50
2021/06/16 01:26:37;;;;;;;7.03;4.47;;;;;;;;;;2052684;28;20171;-51
2021/06/16 01:27:38;;;;;;;8.13;4.55;;;;;;;;;;2054495;28;20197;-53
2021/06/16 01:28:42;;;;;;;8.55;4.63;;;;;;;;;;2054285;28;20197;-52
2021/06/16 01:29:43;;;;;;;5.75;4.72;;;;;;;;;;2048956;28;20257;-55
2021/06/16 01:30:45;;;;;;;6.68;4.78;;;;;;;;;;2050116;28;20187;-52
2021/06/16 01:31:46;;;;;;;7.07;4.60;;;;;;;;;;2055500;28;20171;-52
2021/06/16 01:32:47;;;;;;;12.48;5.20;;;;;;;;;;2054082;28;20221;-51
2021/06/16 01:33:48;;;;;;;5.20;4.75;;;;;;;;;;2056966;28;20178;-52
2021/06/16 01:34:49;;;;;;;5.70;4.65;;;;;;;;;;2052470;28;20213;-51
2021/06/16 01:35:51;;;;;;;9.07;5.03;;;;;;;;;;2056686;28;20197;-53
2021/06/16 01:36:53;;;;;;;5.47;4.13;;;;;;;;;;2051579;28;20187;-51
2021/06/16 01:37:53;;;;;;;5.97;4.93;;;;;;;;;;2051701;28;20179;-55
2021/06/16 01:38:54;;;;;;;7.65;5.18;;;;;;;;;;2052008;28;20178;-54
2021/06/16 01:39:55;;;;;;;6.13;4.80;;;;;;;;;;2053062;28;20182;-51
2021/06/16 01:40:57;;;;;;;6.97;5.22;;;;;;;;;;2054165;28;20198;-53
2021/06/16 01:41:58;;;;;;;5.47;4.20;;;;;;;;;;2051013;28;20194;-51
2021/06/16 01:43:00;;;;;;;7.65;4.75;;;;;;;;;;2055377;28;20178;-50
2021/06/16 01:44:00;;;;;;;12.15;5.38;;;;;;;;;;2053053;28;20714;-51
2021/06/16 01:45:01;;;;;;;8.05;5.10;;;;;;;;;;2054103;28;20198;-51
2021/06/16 01:46:02;;;;;;;7.72;4.80;;;;;;;;;;2051840;28;20171;-54
2021/06/16 01:47:03;;;;;;;8.95;5.57;;;;;;;;;;2050002;28;20263;-51
2021/06/16 01:48:06;;;;;;;6.90;5.43;;;;;;;;;;2053862;28;20178;-54
2021/06/16 01:49:07;;;;;;;10.55;5.20;;;;;;;;;;2052781;28;20177;-54
2021/06/16 01:50:07;;;;;;;6.00;5.25;;;;;;;;;;2050958;28;20214;-52
2021/06/16 01:51:08;;;;;;;8.93;4.53;;;;;;;;;;2056068;28;20261;-51
2021/06/16 01:52:09;;;;;;;9.65;5.20;;;;;;;;;;2045211;28;20178;-55
2021/06/16 01:53:10;;;;;;;7.85;4.45;;;;;;;;;;2045459;28;20170;-53
2021/06/16 01:54:11;;;;;;;8.05;4.93;;;;;;;;;;2052931;28;20660;-52
2021/06/16 01:55:11;;;;;;;8.20;4.95;;;;;;;;;;2051824;28;20201;-49
2021/06/16 01:56:12;;;;;;;7.65;4.95;;;;;;;;;;2053197;28;20177;-52
2021/06/16 01:57:13;;;;;;;7.63;5.10;;;;;;;;;;2053491;28;20576;-54
2021/06/16 01:58:13;;;;;;;8.25;4.95;;;;;;;;;;2053245;28;20270;-52
2021/06/16 01:59:14;;;;;;;5.45;4.53;;;;;;;;;;2055007;28;20566;-52
2021/06/16 02:00:15;;;;;;;5.40;4.90;;;;;;;;;;2055892;28;20178;-51
2021/06/16 02:01:16;;;;;;;6.55;4.82;;;;;;;;;;2051118;28;20191;-52
2021/06/16 02:02:17;;;;;;;6.47;4.95;;;;;;;;;;2051903;28;20662;-54
2021/06/16 02:03:17;;;;;;;7.18;5.25;;;;;;;;;;2053866;28;20191;-53
2021/06/16 02:04:18;;;;;;;9.98;5.55;;;;;;;;;;2049855;28;20250;-55
2021/06/16 02:05:19;;;;;;;7.32;5.38;;;;;;;;;;2055332;28;20250;-51
2021/06/16 02:06:22;;;;;;;5.80;4.93;;;;;;;;;;2053457;28;20285;-51
2021/06/16 02:07:25;;;;;;;7.63;5.45;;;;;;;;;;2053261;28;20199;-52
2021/06/16 02:08:28;;;;;;;11.85;5.90;;;;;;;;;;2056558;28;20198;-52
2021/06/16 02:09:28;;;;;;;6.85;5.25;;;;;;;;;;2052060;28;20178;-51
2021/06/16 02:10:33;;;;;;;7.72;5.40;;;;;;;;;;2053654;28;20300;-54
2021/06/16 02:11:37;;;;;;;8.07;5.40;;;;;;;;;;2055881;28;20354;-51
2021/06/16 02:12:38;;;;;;;7.40;4.80;;;;;;;;;;2050408;28;20671;-54
2021/06/16 02:13:40;;;;;;;8.57;5.15;;;;;;;;;;2054827;28;20175;-53
2021/06/16 02:14:42;;;;;;;6.70;5.15;;;;;;;;;;2054336;28;20174;-55
2021/06/16 02:15:48;;;;;;;8.38;5.45;;;;;;;;;;2049652;28;20217;-53
2021/06/16 02:16:58;;;;;;;8.45;5.25;;;;;;;;;;2056778;28;20281;-52
2021/06/16 02:18:00;;;;;;;7.20;5.07;;;;;;;;;;2051607;28;20203;-54
2021/06/16 02:19:06;;;;;;;6.97;6.15;;;;;;;;;;2051729;28;20631;-49
2021/06/16 02:20:07;;;;;;;8.57;5.32;;;;;;;;;;2052530;28;20177;-51
2021/06/16 02:21:07;;;;;;;8.75;4.85;;;;;;;;;;2053417;28;20178;-53
2021/06/16 02:22:09;;;;;;;7.60;4.95;;;;;;;;;;2053119;28;20657;-54
2021/06/16 02:23:09;;;;;;;11.20;6.20;;;;;;;;;;2052806;28;20182;-53
2021/06/16 02:24:11;;;;;;;10.30;6.22;;;;;;;;;;2053729;28;20197;-49
2021/06/16 02:25:12;;;;;;;7.50;5.05;;;;;;;;;;2050454;28;20194;-53
2021/06/16 02:26:13;;;;;;;7.30;6.07;;;;;;;;;;2054134;28;20520;-53
2021/06/16 02:27:13;;;;;;;11.10;5.88;;;;;;;;;;2056720;28;20221;-50
2021/06/16 02:28:14;;;;;;;7.30;5.47;;;;;;;;;;2050358;28;20186;-53
2021/06/16 02:29:14;;;;;;;6.63;5.10;;;;;;;;;;2053074;28;20202;-50
2021/06/16 02:30:15;;;;;;;7.15;5.55;;;;;;;;;;2051437;28;20178;-53
2021/06/16 02:31:15;;;;;;;6.10;5.47;;;;;;;;;;2053869;28;20174;-54
2021/06/16 02:32:15;;;;;;;6.22;4.72;;;;;;;;;;2056659;28;20186;-50
2021/06/16 02:33:15;;;;;;;6.63;5.07;;;;;;;;;;2055797;28;20166;-52
2021/06/16 02:34:16;;;;;;;8.98;5.35;;;;;;;;;;2054088;28;20221;-50
2021/06/16 02:35:16;;;;;;;6.88;4.72;;;;;;;;;;2055109;28;20202;-50
2021/06/16 02:36:18;;;;;;;7.63;4.93;;;;;;;;;;2052203;28;20174;-51
2021/06/16 02:37:18;;;;;;;10.88;5.30;;;;;;;;;;2052494;28;20285;-51
2021/06/16 02:38:21;;;;;;;7.90;4.80;;;;;;;;;;2054601;28;20190;-52
2021/06/16 02:39:30;;;;;;;7.07;5.30;;;;;;;;;;2054830;28;20177;-55
2021/06/16 02:40:30;;;;;;;6.55;5.47;;;;;;;;;;2054657;28;20240;-51
2021/06/16 02:41:31;;;;;;;5.20;4.78;;;;;;;;;;2053767;28;20187;-50
2021/06/16 02:42:31;;;;;;;7.97;6.18;;;;;;;;;;2057769;28;20190;-53
2021/06/16 02:43:36;;;;;;;10.70;5.85;;;;;;;;;;2054078;28;20218;-51
2021/06/16 02:44:40;;;;;;;7.75;5.82;;;;;;;;;;2054816;28;20178;-54
2021/06/16 02:45:41;;;;;;;9.07;5.57;;;;;;;;;;2057009;28;20745;-52
2021/06/16 02:46:42;;;;;;;9.07;6.18;;;;;;;;;;2053670;28;20226;-51
2021/06/16 02:47:49;;;;;;;6.78;4.93;;;;;;;;;;2055424;28;20202;-55
2021/06/16 02:48:50;;;;;;;9.20;5.35;;;;;;;;;;2056357;28;20186;-52
2021/06/16 02:49:53;;;;;;;9.40;5.32;;;;;;;;;;2057191;28;20175;-51
2021/06/16 02:50:55;;;;;;;6.57;4.68;;;;;;;;;;2055580;28;20663;-51
2021/06/16 02:51:57;;;;;;;8.05;5.00;;;;;;;;;;2053195;28;20198;-56
2021/06/16 02:53:00;;;;;;;9.43;4.95;;;;;;;;;;2054019;28;20528;-51
2021/06/16 02:54:01;;;;;;;8.60;5.72;;;;;;;;;;2054360;28;20182;-52
2021/06/16 02:55:03;;;;;;;9.07;5.10;;;;;;;;;;2057311;28;20667;-55
2021/06/16 02:56:04;;;;;;;7.55;5.65;;;;;;;;;;2055560;28;20182;-50
2021/06/16 02:57:05;;;;;;;10.63;5.22;;;;;;;;;;2056974;28;21029;-55
2021/06/16 02:58:06;;;;;;;10.35;5.10;;;;;;;;;;2055123;28;20791;-50
2021/06/16 02:59:07;;;;;;;5.50;5.00;;;;;;;;;;2053363;28;20636;-56
2021/06/16 03:00:09;;;;;;;6.72;5.78;;;;;;;;;;2057915;28;20177;-53
2021/06/16 03:01:12;;;;;;;7.93;5.15;;;;;;;;;;2054007;28;20788;-57
2021/06/16 03:02:14;;;;;;;6.20;5.30;;;;;;;;;;2052494;28;20183;-52
2021/06/16 03:03:15;;;;;;;10.82;5.75;;;;;;;;;;2055384;28;20178;-51
2021/06/16 03:04:18;;;;;;;10.48;6.05;;;;;;;;;;2053768;28;20203;-52
2021/06/16 03:05:21;;;;;;;6.43;4.65;;;;;;;;;;2056134;28;20196;-51
2021/06/16 03:06:22;;;;;;;5.93;5.22;;;;;;;;;;2054951;28;20194;-51
2021/06/16 03:07:24;;;;;;;9.00;6.32;;;;;;;;;;2052975;28;20186;-56
2021/06/16 03:08:25;;;;;;;5.97;5.07;;;;;;;;;;2053085;28;20196;-54
2021/06/16 03:09:27;;;;;;;8.73;5.45;;;;;;;;;;2050303;28;20563;-53
2021/06/16 03:10:28;;;;;;;8.00;5.18;;;;;;;;;;2055176;28;20197;-52
2021/06/16 03:11:29;;;;;;;7.38;5.28;;;;;;;;;;2052831;28;20175;-52
2021/06/16 03:12:30;;;;;;;8.05;5.53;;;;;;;;;;2050184;28;20528;-52
2021/06/16 03:13:31;;;;;;;8.55;5.78;;;;;;;;;;2052953;28;20272;-51
2021/06/16 03:14:32;;;;;;;5.72;5.05;;;;;;;;;;2054190;28;20178;-52
2021/06/16 03:15:33;;;;;;;6.30;5.70;;;;;;;;;;2051398;28;20227;-54
2021/06/16 03:16:34;;;;;;;8.00;6.03;;;;;;;;;;2056478;28;20662;-56
2021/06/16 03:17:34;;;;;;;7.88;6.05;;;;;;;;;;2052107;28;20206;-52
2021/06/16 03:18:35;;;;;;;11.75;5.30;;;;;;;;;;2051944;28;20644;-54
2021/06/16 03:19:37;;;;;;;6.97;5.38;;;;;;;;;;2052848;28;20182;-54
2021/06/16 03:20:38;;;;;;;7.28;5.68;;;;;;;;;;2051998;28;20178;-55
2021/06/16 03:21:39;;;;;;;8.10;6.53;;;;;;;;;;2056243;28;20197;-51
2021/06/16 03:22:40;;;;;;;7.93;5.80;;;;;;;;;;2053462;28;20190;-54
2021/06/16 03:23:41;;;;;;;6.68;6.07;;;;;;;;;;2050293;28;20596;-52
2021/06/16 03:24:42;;;;;;;6.30;5.72;;;;;;;;;;2051312;28;20241;-53
2021/06/16 03:25:43;;;;;;;8.13;5.60;;;;;;;;;;2053155;28;20195;-51
2021/06/16 03:26:44;;;;;;;8.48;6.00;;;;;;;;;;2053984;28;20255;-54
2021/06/16 03:27:45;;;;;;;9.65;5.97;;;;;;;;;;2055246;28;20254;-56
2021/06/16 03:28:46;;;;;;;8.73;5.35;;;;;;;;;;2052704;28;20185;-55
2021/06/16 03:29:49;;;;;;;7.80;6.07;;;;;;;;;;2053182;28;20177;-52
2021/06/16 03:30:50;;;;;;;6.82;4.95;;;;;;;;;;2048873;28;20214;-52
2021/06/16 03:31:51;;;;;;;9.07;5.35;;;;;;;;;;2055720;28;20246;-55
2021/06/16 03:32:53;;;;;;;6.57;5.15;;;;;;;;;;2052198;28;20258;-52
2021/06/16 03:33:53;;;;;;;6.30;4.82;;;;;;;;;;2051427;28;20214;-51
2021/06/16 03:34:54;;;;;;;7.05;6.00;;;;;;;;;;2049725;28;20289;-53
2021/06/16 03:35:54;;;;;;;8.35;5.55;;;;;;;;;;2051526;28;20250;-51
2021/06/16 03:36:56;;;;;;;5.93;5.32;;;;;;;;;;2051891;28;20187;-53
2021/06/16 03:37:57;;;;;;;5.32;4.90;;;;;;;;;;2054431;28;20688;-50
2021/06/16 03:38:57;;;;;;;9.15;5.60;;;;;;;;;;2052141;28;20185;-53
2021/06/16 03:39:58;;;;;;;14.32;5.40;;;;;;;;;;2052511;28;20190;-53
2021/06/16 03:40:59;;;;;;;6.03;4.97;;;;;;;;;;2055921;28;20182;-54
2021/06/16 03:42:00;;;;;;;9.15;5.63;;;;;;;;;;2059235;28;20326;-56
2021/06/16 03:43:01;;;;;;;5.90;5.10;;;;;;;;;;2063073;28;20180;-53
2021/06/16 03:44:04;;;;;;;8.52;5.03;;;;;;;;;;2050517;28;20338;-51
2021/06/16 03:45:06;;;;;;;6.97;5.07;;;;;;;;;;2050858;28;20671;-52
2021/06/16 03:46:07;;;;;;;7.95;5.05;;;;;;;;;;2054579;28;20166;-53
2021/06/16 03:47:08;;;;;;;9.23;5.28;;;;;;;;;;2053382;28;20196;-50
2021/06/16 03:48:08;;;;;;;6.90;5.45;;;;;;;;;;2056402;28;20213;-55
2021/06/16 03:49:10;;;;;;;6.85;4.97;;;;;;;;;;2053257;28;20552;-51
2021/06/16 03:50:14;;;;;;;9.20;5.72;;;;;;;;;;2051776;28;20201;-52
2021/06/16 03:51:15;;;;;;;7.03;4.85;;;;;;;;;;2050788;28;20183;-50
2021/06/16 03:52:15;;;;;;;8.63;5.50;;;;;;;;;;2054437;28;20265;-53
2021/06/16 03:53:16;;;;;;;11.20;6.13;;;;;;;;;;2056656;28;20182;-54
2021/06/16 03:54:18;;;;;;;9.05;5.15;;;;;;;;;;2054298;28;20186;-52
2021/06/16 03:55:18;;;;;;;7.47;4.93;;;;;;;;;;2052284;28;20281;-52
2021/06/16 03:56:21;;;;;;;6.28;5.68;;;;;;;;;;2054928;28;20184;-51
2021/06/16 03:57:21;;;;;;;10.05;4.97;;;;;;;;;;2057095;28;20237;-55
2021/06/16 03:58:22;;;;;;;6.03;4.72;;;;;;;;;;2054991;28;20182;-54
2021/06/16 03:59:22;;;;;;;6.75;5.45;;;;;;;;;;2052802;28;20175;-56
2021/06/16 04:00:23;;;;;;;7.88;5.28;;;;;;;;;;2054220;28;20194;-51
2021/06/16 04:01:24;;;;;;;7.68;5.53;;;;;;;;;;2052529;28;20547;-50
2021/06/16 04:02:24;;;;;;;8.95;5.30;;;;;;;;;;2056353;28;20187;-53
2021/06/16 04:03:25;;;;;;;8.70;5.40;;;;;;;;;;2053053;28;20214;-54
2021/06/16 04:04:25;;;;;;;6.72;5.10;;;;;;;;;;2052545;28;20305;-51
2021/06/16 04:05:26;;;;;;;9.25;5.57;;;;;;;;;;2052040;28;20210;-50
2021/06/16 04:06:26;;;;;;;7.65;5.50;;;;;;;;;;2052240;28;20253;-50
2021/06/16 04:07:27;;;;;;;8.55;5.90;;;;;;;;;;2051709;28;20217;-54
2021/06/16 04:08:27;;;;;;;8.48;5.53;;;;;;;;;;2056109;28;20193;-53
2021/06/16 04:09:28;;;;;;;8.40;5.38;;;;;;;;;;2053554;28;20200;-53
2021/06/16 04:10:28;;;;;;;7.80;5.43;;;;;;;;;;2054337;28;20174;-53
2021/06/16 04:11:29;;;;;;;9.68;5.43;;;;;;;;;;2053120;28;20313;-54
2021/06/16 04:12:31;;;;;;;8.52;5.35;;;;;;;;;;2050934;28;20544;-52
2021/06/16 04:13:31;;;;;;;9.82;5.38;;;;;;;;;;2052926;28;20183;-54
2021/06/16 04:14:31;;;;;;;7.50;5.55;;;;;;;;;;2056053;28;20200;-50
2021/06/16 04:15:31;;;;;;;10.32;5.55;;;;;;;;;;2050517;28;20710;-53
2021/06/16 04:16:32;;;;;;;6.72;6.03;;;;;;;;;;2056590;28;20305;-54
2021/06/16 04:17:32;;;;;;;8.85;5.40;;;;;;;;;;2052070;28;20612;-51
2021/06/16 04:18:33;;;;;;;6.47;5.43;;;;;;;;;;2051259;28;20175;-53
2021/06/16 04:19:33;;;;;;;8.77;5.35;;;;;;;;;;2052158;28;20197;-53
2021/06/16 04:20:34;;;;;;;6.65;5.25;;;;;;;;;;2052881;28;20201;-53
2021/06/16 04:21:34;;;;;;;6.38;5.70;;;;;;;;;;2050819;28;20303;-54
2021/06/16 04:22:35;;;;;;;6.95;5.30;;;;;;;;;;2052738;28;20201;-51
2021/06/16 04:23:35;;;;;;;5.57;5.07;;;;;;;;;;2056504;28;20186;-55
2021/06/16 04:24:36;;;;;;;7.72;5.25;;;;;;;;;;2054795;28;20206;-57
2021/06/16 04:25:36;;;;;;;7.88;4.82;;;;;;;;;;2056244;28;20190;-54
2021/06/16 04:26:36;;;;;;;10.18;5.50;;;;;;;;;;2054228;28;20191;-54
2021/06/16 04:27:36;;;;;;;9.95;5.18;;;;;;;;;;2054540;28;20190;-54
2021/06/16 04:28:37;;;;;;;6.30;4.80;;;;;;;;;;2052748;28;20193;-52
2021/06/16 04:29:40;;;;;;;9.15;5.70;;;;;;;;;;2052863;28;20179;-51
2021/06/16 04:30:40;;;;;;;10.18;5.97;;;;;;;;;;2052866;28;20171;-51
2021/06/16 04:31:41;;;;;;;7.50;4.97;;;;;;;;;;2052684;28;20221;-51
2021/06/16 04:32:41;;;;;;;9.43;5.68;;;;;;;;;;2050718;28;20178;-51
2021/06/16 04:33:41;;;;;;;6.38;5.50;;;;;;;;;;2054703;28;20186;-50
2021/06/16 04:34:41;;;;;;;8.30;5.55;;;;;;;;;;2050456;28;20246;-51
2021/06/16 04:35:42;;;;;;;7.40;5.15;;;;;;;;;;2050592;28;20224;-54
2021/06/16 04:36:42;;;;;;;10.38;5.20;;;;;;;;;;2051666;28;20237;-54
2021/06/16 04:37:42;;;;;;;11.68;5.55;;;;;;;;;;2049168;28;20198;-54
2021/06/16 04:38:43;;;;;;;7.50;5.05;;;;;;;;;;2047735;28;20210;-53
2021/06/16 04:39:44;;;;;;;9.07;5.80;;;;;;;;;;2054373;28;20187;-51
2021/06/16 04:40:44;;;;;;;12.20;6.05;;;;;;;;;;2053272;28;20241;-53
2021/06/16 04:41:45;;;;;;;8.27;6.00;;;;;;;;;;2053988;28;20657;-56
2021/06/16 04:42:45;;;;;;;11.15;5.82;;;;;;;;;;2055366;28;20233;-53
2021/06/16 04:43:46;;;;;;;9.73;5.82;;;;;;;;;;2052901;28;20262;-50
2021/06/16 04:44:46;;;;;;;9.05;4.95;;;;;;;;;;2052538;28;20202;-52
2021/06/16 04:45:46;;;;;;;10.73;6.05;;;;;;;;;;2057558;28;20190;-53
2021/06/16 04:46:48;;;;;;;11.95;5.85;;;;;;;;;;2055259;28;20284;-52
2021/06/16 04:47:48;;;;;;;5.65;5.15;;;;;;;;;;2051585;28;20194;-54
2021/06/16 04:48:48;;;;;;;7.10;4.63;;;;;;;;;;2057279;28;20170;-55
2021/06/16 04:49:49;;;;;;;6.15;5.57;;;;;;;;;;2055793;28;20273;-54
2021/06/16 04:50:49;;;;;;;8.98;5.70;;;;;;;;;;2052823;28;20198;-58
2021/06/16 04:51:50;;;;;;;10.55;5.95;;;;;;;;;;2053971;28;20546;-54
2021/06/16 04:52:50;;;;;;;15.48;8.13;;;;;;;;;;2056658;28;20236;-56
2021/06/16 04:53:51;;;;;;;8.70;7.45;;;;;;;;;;2054741;28;20185;-55
2021/06/16 04:54:51;;;;;;;12.35;10.00;;;;;;;;;;2054350;28;20647;-54
2021/06/16 04:55:51;;;;;;;8.63;6.43;;;;;;;;;;2052450;28;20190;-57
2021/06/16 04:56:52;;;;;;;8.93;6.00;;;;;;;;;;2055686;28;20187;-55
2021/06/16 04:57:52;;;;;;;7.05;6.18;;;;;;;;;;2053416;28;20194;-56
2021/06/16 04:58:52;;;;;;;12.30;10.05;;;;;;;;;;2052750;28;20175;-53
2021/06/16 04:59:52;;;;;;;18.02;12.43;;;;;;;;;;2060276;28;20179;-55
2021/06/16 05:00:53;;;;;;;5.25;4.68;;;;;;;;;;2052258;28;20234;-55
2021/06/16 05:01:53;;;;;;;8.48;5.75;;;;;;;;;;2056883;28;20198;-56
2021/06/16 05:02:54;;;;;;;9.13;7.15;;;;;;;;;;2050683;28;20182;-54
2021/06/16 05:03:54;;;;;;;8.95;4.75;;;;;;;;;;2054232;28;20578;-56
2021/06/16 05:04:54;;;;;;;10.00;5.45;;;;;;;;;;2058270;28;20182;-52
2021/06/16 05:05:54;;;;;;;13.38;7.13;;;;;;;;;;2072099;23;20286;-64
2021/06/16 05:06:55;;;;;;;10.00;7.55;;;;;;;;;;2068539;28;20177;-64
2021/06/16 05:07:55;;;;;;;7.10;4.95;;;;;;;;;;2070436;28;20176;-65
2021/06/16 05:08:56;;;;;;;7.03;5.50;;;;;;;;;;2071485;28;20189;-63
2021/06/16 05:09:56;;;;;;;8.35;5.30;;;;;;;;;;2070427;28;20255;-63
2021/06/16 05:10:56;;;;;;;9.55;7.30;;;;;;;;;;2071121;28;20176;-63
2021/06/16 05:11:56;;;;;;;9.95;6.78;;;;;;;;;;2070404;28;20607;-63
2021/06/16 05:12:57;;;;;;;7.90;5.90;;;;;;;;;;2072324;28;20544;-63
2021/06/16 05:13:57;;;;;;;7.93;5.57;;;;;;;;;;2071065;28;20657;-64
2021/06/16 05:14:57;;;;;;;9.25;5.72;;;;;;;;;;2072037;28;20232;-63
2021/06/16 05:15:58;;;;;;;8.15;5.45;;;;;;;;;;2069558;28;20210;-63
2021/06/16 05:16:58;;;;;;;5.65;5.03;;;;;;;;;;2072269;28;20173;-64
2021/06/16 05:17:59;;;;;;;7.22;6.15;;;;;;;;;;2065678;28;20576;-64
2021/06/16 05:18:59;;;;;;;8.02;5.18;;;;;;;;;;2065510;28;20181;-63
2021/06/16 05:20:00;;;;;;;8.65;5.32;;;;;;;;;;2074565;28;20181;-64
2021/06/16 05:21:00;;;;;;;16.45;6.05;;;;;;;;;;2069910;28;20857;-64
2021/06/16 05:22:10;;;;;;;7.38;5.10;;;;;;;;;;2065563;28;20186;-62
2021/06/16 05:23:11;;;;;;;9.93;4.63;;;;;;;;;;2062842;28;20181;-63
2021/06/16 05:24:11;;;;;;;7.97;4.63;;;;;;;;;;2067960;28;20661;-63
2021/06/16 05:25:11;;;;;;;5.00;4.15;;;;;;;;;;2063268;28;20173;-63
2021/06/16 05:26:12;;;;;;;7.70;4.90;;;;;;;;;;2068933;28;21220;-62
2021/06/16 05:27:15;;;;;;;6.22;4.60;;;;;;;;;;2068851;28;20684;-63
2021/06/16 05:28:15;;;;;;;7.47;4.60;;;;;;;;;;2064726;28;20177;-62
2021/06/16 05:29:16;;;;;;;5.15;4.30;;;;;;;;;;2067933;28;20591;-63
2021/06/16 05:30:19;;;;;;;9.98;5.22;;;;;;;;;;2067416;28;20175;-64
2021/06/16 05:31:19;;;;;;;5.72;4.55;;;;;;;;;;2070554;28;20177;-63
2021/06/16 05:32:20;;;;;;;13.57;6.70;;;;;;;;;;2065285;28;20598;-63
2021/06/16 05:33:20;;;;;;;6.90;4.75;;;;;;;;;;2055992;28;20170;-64
2021/06/16 05:34:20;;;;;;;7.75;4.53;;;;;;;;;;2061878;28;20264;-64
2021/06/16 05:35:21;;;;;;;7.85;4.60;;;;;;;;;;2070293;28;20232;-63
2021/06/16 05:36:21;;;;;;;9.27;5.22;;;;;;;;;;2066428;28;20177;-64
2021/06/16 05:37:22;;;;;;;10.23;7.78;;;;;;;;;;2066428;28;20558;-64
2021/06/16 05:38:23;;;;;;;6.63;4.95;;;;;;;;;;2069189;28;20174;-64
2021/06/16 05:39:23;;;;;;;6.40;5.53;;;;;;;;;;2064679;28;20261;-64
2021/06/16 05:40:23;;;;;;;12.23;4.97;;;;;;;;;;2065607;28;20181;-65
2021/06/16 05:41:24;;;;;;;11.23;4.25;;;;;;;;;;2063206;28;20189;-61
2021/06/16 05:42:24;;;;;;;10.57;5.57;;;;;;;;;;2066211;28;20181;-63
2021/06/16 05:43:24;;;;;;;7.30;4.72;;;;;;;;;;2059832;28;20178;-61
2021/06/16 05:44:25;;;;;;;7.00;5.03;;;;;;;;;;2063649;28;20216;-64
2021/06/16 05:45:25;;;;;;;9.90;3.83;;;;;;;;;;2066606;28;20236;-63
2021/06/16 05:46:25;;;;;;;7.85;4.03;;;;;;;;;;2066699;28;20182;-64
2021/06/16 05:47:25;;;;;;;4.95;4.05;;;;;;;;;;2060995;28;20213;-65
2021/06/16 05:48:26;;;;;;;5.63;3.92;;;;;;;;;;2066282;28;20172;-64
2021/06/16 05:49:26;;;;;;;6.38;4.05;;;;;;;;;;2065340;28;20637;-63
2021/06/16 05:50:26;;;;;;;6.80;4.25;;;;;;;;;;2064678;28;20684;-64
2021/06/16 05:51:27;;;;;;;6.03;4.60;;;;;;;;;;2065431;28;20185;-64
2021/06/16 05:52:27;;;;;;;6.28;4.22;;;;;;;;;;2068426;28;20177;-64
2021/06/16 05:53:27;;;;;;;4.78;3.80;;;;;;;;;;2069381;28;20180;-62
2021/06/16 05:54:27;;;;;;;7.05;4.35;;;;;;;;;;2066342;28;20177;-66
2021/06/16 05:55:28;;;;;;;6.72;3.75;;;;;;;;;;2067592;28;20170;-66
2021/06/16 05:56:28;;;;;;;8.05;3.88;;;;;;;;;;2070173;28;20673;-65
2021/06/16 05:57:28;;;;;;;4.82;4.28;;;;;;;;;;2069831;28;20272;-65
2021/06/16 05:58:28;;;;;;;7.38;4.40;;;;;;;;;;2067592;28;20181;-63
2021/06/16 05:59:29;;;;;;;8.63;4.32;;;;;;;;;;2069416;28;20169;-62
2021/06/16 06:00:29;;;;;;;7.13;4.07;;;;;;;;;;2066217;28;20198;-57
2021/06/16 06:01:29;;;;;;;5.68;3.92;;;;;;;;;;2067962;28;20180;-63
2021/06/16 06:02:30;;;;;;;7.38;4.35;;;;;;;;;;2061918;28;20177;-59
2021/06/16 06:03:30;;;;;;;5.82;4.32;;;;;;;;;;2061084;28;20190;-62
2021/06/16 06:04:30;;;;;;;7.63;3.65;;;;;;;;;;2060719;28;20192;-62
2021/06/16 06:05:30;;;;;;;6.35;4.28;;;;;;;;;;2062558;28;20206;-61